sensor_id;sensor_type;location;lat;lon;timestamp;temperature;humidity
51383;DHT22;37475;43.358;1.248;2023-10-31T00:02:16;8.70;96.40
51383;DHT22;37475;43.358;1.248;2023-10-31T00:04:42;8.60;96.40
51383;DHT22;37475;43.358;1.248;2023-10-31T00:07:08;8.70;96.40
51383;DHT22;37475;43.358;1.248;2023-10-31T00:09:34;8.70;96.40
51383;DHT22;37475;43.358;1.248;2023-10-31T00:11:59;8.70;96.40
51383;DHT22;37475;43.358;1.248;2023-10-31T00:14:25;8.70;96.30
51383;DHT22;37475;43.358;1.248;2023-10-31T00:16:51;8.70;96.40
51383;DHT22;37475;43.358;1.248;2023-10-31T00:19:17;8.80;96.50
51383;DHT22;37475;43.358;1.248;2023-10-31T00:21:44;8.80;96.50
51383;DHT22;37475;43.358;1.248;2023-10-31T00:24:09;8.90;96.50
51383;DHT22;37475;43.358;1.248;2023-10-31T00:26:35;8.80;96.50
51383;DHT22;37475;43.358;1.248;2023-10-31T00:29:01;8.90;96.50
51383;DHT22;37475;43.358;1.248;2023-10-31T00:31:26;8.90;96.50
51383;DHT22;37475;43.358;1.248;2023-10-31T00:33:52;8.90;96.50
51383;DHT22;37475;43.358;1.248;2023-10-31T00:36:18;9.00;96.50
51383;DHT22;37475;43.358;1.248;2023-10-31T00:38:44;9.00;96.50
51383;DHT22;37475;43.358;1.248;2023-10-31T00:41:09;9.10;96.40
51383;DHT22;37475;43.358;1.248;2023-10-31T00:43:35;9.00;96.40
51383;DHT22;37475;43.358;1.248;2023-10-31T00:46:03;9.10;96.40
51383;DHT22;37475;43.358;1.248;2023-10-31T00:48:29;9.10;96.40
51383;DHT22;37475;43.358;1.248;2023-10-31T00:50:55;9.20;96.30
51383;DHT22;37475;43.358;1.248;2023-10-31T00:53:20;9.20;96.20
51383;DHT22;37475;43.358;1.248;2023-10-31T00:55:46;9.30;96.20
51383;DHT22;37475;43.358;1.248;2023-10-31T00:58:12;9.20;96.20
51383;DHT22;37475;43.358;1.248;2023-10-31T01:00:38;9.30;96.10
51383;DHT22;37475;43.358;1.248;2023-10-31T01:03:03;9.30;96.00
51383;DHT22;37475;43.358;1.248;2023-10-31T01:05:29;9.40;96.00
51383;DHT22;37475;43.358;1.248;2023-10-31T01:07:55;9.40;95.90
51383;DHT22;37475;43.358;1.248;2023-10-31T01:10:21;9.50;95.90
51383;DHT22;37475;43.358;1.248;2023-10-31T01:12:47;9.40;95.80
51383;DHT22;37475;43.358;1.248;2023-10-31T01:15:12;9.40;95.70
51383;DHT22;37475;43.358;1.248;2023-10-31T01:17:38;9.40;95.60
51383;DHT22;37475;43.358;1.248;2023-10-31T01:20:05;9.50;95.60
51383;DHT22;37475;43.358;1.248;2023-10-31T01:22:31;9.50;95.50
51383;DHT22;37475;43.358;1.248;2023-10-31T01:24:57;9.50;95.50
51383;DHT22;37475;43.358;1.248;2023-10-31T01:27:23;9.50;95.50
51383;DHT22;37475;43.358;1.248;2023-10-31T01:29:49;9.60;95.40
51383;DHT22;37475;43.358;1.248;2023-10-31T01:32:14;9.60;95.40
51383;DHT22;37475;43.358;1.248;2023-10-31T01:34:40;9.60;95.40
51383;DHT22;37475;43.358;1.248;2023-10-31T01:37:06;9.60;95.40
51383;DHT22;37475;43.358;1.248;2023-10-31T01:39:32;9.60;95.30
51383;DHT22;37475;43.358;1.248;2023-10-31T01:41:57;9.60;95.40
51383;DHT22;37475;43.358;1.248;2023-10-31T01:44:23;9.60;95.30
51383;DHT22;37475;43.358;1.248;2023-10-31T01:46:49;9.70;95.20
51383;DHT22;37475;43.358;1.248;2023-10-31T01:49:15;9.70;95.20
51383;DHT22;37475;43.358;1.248;2023-10-31T01:51:42;9.70;95.20
51383;DHT22;37475;43.358;1.248;2023-10-31T01:54:09;9.70;95.20
51383;DHT22;37475;43.358;1.248;2023-10-31T01:56:36;9.70;95.20
51383;DHT22;37475;43.358;1.248;2023-10-31T01:59:02;9.70;95.20
51383;DHT22;37475;43.358;1.248;2023-10-31T02:01:29;9.70;95.20
51383;DHT22;37475;43.358;1.248;2023-10-31T02:03:55;9.70;95.10
51383;DHT22;37475;43.358;1.248;2023-10-31T02:06:21;9.70;95.10
51383;DHT22;37475;43.358;1.248;2023-10-31T02:08:47;9.70;95.10
51383;DHT22;37475;43.358;1.248;2023-10-31T02:11:13;9.80;95.10
51383;DHT22;37475;43.358;1.248;2023-10-31T02:13:39;9.80;95.10
51383;DHT22;37475;43.358;1.248;2023-10-31T02:16:06;9.80;95.10
51383;DHT22;37475;43.358;1.248;2023-10-31T02:18:32;9.80;95.10
51383;DHT22;37475;43.358;1.248;2023-10-31T02:20:59;9.80;95.20
51383;DHT22;37475;43.358;1.248;2023-10-31T02:23:24;9.80;95.10
51383;DHT22;37475;43.358;1.248;2023-10-31T02:25:50;9.80;95.10
51383;DHT22;37475;43.358;1.248;2023-10-31T02:28:16;9.80;95.10
51383;DHT22;37475;43.358;1.248;2023-10-31T02:30:42;9.80;95.10
51383;DHT22;37475;43.358;1.248;2023-10-31T02:33:07;9.80;95.00
51383;DHT22;37475;43.358;1.248;2023-10-31T02:35:33;9.90;95.00
51383;DHT22;37475;43.358;1.248;2023-10-31T02:37:59;9.80;94.90
51383;DHT22;37475;43.358;1.248;2023-10-31T02:40:25;9.80;94.90
51383;DHT22;37475;43.358;1.248;2023-10-31T02:42:51;9.80;94.90
51383;DHT22;37475;43.358;1.248;2023-10-31T02:45:17;9.80;94.90
51383;DHT22;37475;43.358;1.248;2023-10-31T02:47:43;9.80;94.80
51383;DHT22;37475;43.358;1.248;2023-10-31T02:50:09;9.80;94.80
51383;DHT22;37475;43.358;1.248;2023-10-31T02:52:35;9.80;94.80
51383;DHT22;37475;43.358;1.248;2023-10-31T02:55:01;9.70;94.70
51383;DHT22;37475;43.358;1.248;2023-10-31T02:57:27;9.70;94.70
51383;DHT22;37475;43.358;1.248;2023-10-31T02:59:53;9.70;94.70
51383;DHT22;37475;43.358;1.248;2023-10-31T03:02:19;9.60;94.70
51383;DHT22;37475;43.358;1.248;2023-10-31T03:04:45;9.60;94.70
51383;DHT22;37475;43.358;1.248;2023-10-31T03:07:10;9.60;94.70
51383;DHT22;37475;43.358;1.248;2023-10-31T03:09:37;9.50;94.80
51383;DHT22;37475;43.358;1.248;2023-10-31T03:12:03;9.50;94.90
51383;DHT22;37475;43.358;1.248;2023-10-31T03:14:28;9.50;94.80
51383;DHT22;37475;43.358;1.248;2023-10-31T03:16:54;9.50;94.80
51383;DHT22;37475;43.358;1.248;2023-10-31T03:19:20;9.50;94.80
51383;DHT22;37475;43.358;1.248;2023-10-31T03:21:46;9.30;94.70
51383;DHT22;37475;43.358;1.248;2023-10-31T03:24:11;9.30;94.80
51383;DHT22;37475;43.358;1.248;2023-10-31T03:26:37;9.30;94.90
51383;DHT22;37475;43.358;1.248;2023-10-31T03:29:03;9.30;94.80
51383;DHT22;37475;43.358;1.248;2023-10-31T03:31:29;9.30;94.90
51383;DHT22;37475;43.358;1.248;2023-10-31T03:33:54;9.30;94.90
51383;DHT22;37475;43.358;1.248;2023-10-31T03:36:21;9.30;94.80
51383;DHT22;37475;43.358;1.248;2023-10-31T03:38:46;9.30;94.80
51383;DHT22;37475;43.358;1.248;2023-10-31T03:41:12;9.30;94.80
51383;DHT22;37475;43.358;1.248;2023-10-31T03:43:38;9.30;94.70
51383;DHT22;37475;43.358;1.248;2023-10-31T03:46:04;9.30;94.70
51383;DHT22;37475;43.358;1.248;2023-10-31T03:48:30;9.30;94.60
51383;DHT22;37475;43.358;1.248;2023-10-31T03:50:57;9.30;94.50
51383;DHT22;37475;43.358;1.248;2023-10-31T03:53:22;9.30;94.50
51383;DHT22;37475;43.358;1.248;2023-10-31T03:55:48;9.30;94.30
51383;DHT22;37475;43.358;1.248;2023-10-31T03:58:14;9.20;94.40
51383;DHT22;37475;43.358;1.248;2023-10-31T04:00:40;9.20;94.40
51383;DHT22;37475;43.358;1.248;2023-10-31T04:03:07;9.20;94.50
51383;DHT22;37475;43.358;1.248;2023-10-31T04:05:33;9.10;94.60
51383;DHT22;37475;43.358;1.248;2023-10-31T04:07:59;9.10;94.80
51383;DHT22;37475;43.358;1.248;2023-10-31T04:10:26;9.00;94.80
51383;DHT22;37475;43.358;1.248;2023-10-31T04:12:51;9.00;94.90
51383;DHT22;37475;43.358;1.248;2023-10-31T04:15:17;9.00;94.90
51383;DHT22;37475;43.358;1.248;2023-10-31T04:17:43;9.00;94.90
51383;DHT22;37475;43.358;1.248;2023-10-31T04:20:09;9.00;94.90
51383;DHT22;37475;43.358;1.248;2023-10-31T04:22:35;8.90;94.80
51383;DHT22;37475;43.358;1.248;2023-10-31T04:25:01;9.00;94.80
51383;DHT22;37475;43.358;1.248;2023-10-31T04:27:27;8.90;94.70
51383;DHT22;37475;43.358;1.248;2023-10-31T04:29:53;8.90;94.70
51383;DHT22;37475;43.358;1.248;2023-10-31T04:32:19;8.90;94.60
51383;DHT22;37475;43.358;1.248;2023-10-31T04:34:44;8.80;94.50
51383;DHT22;37475;43.358;1.248;2023-10-31T04:37:10;8.80;94.40
51383;DHT22;37475;43.358;1.248;2023-10-31T04:39:36;8.80;94.30
51383;DHT22;37475;43.358;1.248;2023-10-31T04:42:02;8.80;94.20
51383;DHT22;37475;43.358;1.248;2023-10-31T04:44:28;8.90;94.10
51383;DHT22;37475;43.358;1.248;2023-10-31T04:46:54;8.90;94.00
51383;DHT22;37475;43.358;1.248;2023-10-31T04:49:19;8.90;93.90
51383;DHT22;37475;43.358;1.248;2023-10-31T04:51:46;8.90;93.80
51383;DHT22;37475;43.358;1.248;2023-10-31T04:54:11;8.80;93.70
51383;DHT22;37475;43.358;1.248;2023-10-31T04:56:37;8.80;93.80
51383;DHT22;37475;43.358;1.248;2023-10-31T04:59:03;8.80;93.70
51383;DHT22;37475;43.358;1.248;2023-10-31T05:01:29;8.60;93.70
51383;DHT22;37475;43.358;1.248;2023-10-31T05:03:55;8.60;93.80
51383;DHT22;37475;43.358;1.248;2023-10-31T05:06:21;8.60;93.90
51383;DHT22;37475;43.358;1.248;2023-10-31T05:08:48;8.60;93.90
51383;DHT22;37475;43.358;1.248;2023-10-31T05:11:19;8.60;94.00
51383;DHT22;37475;43.358;1.248;2023-10-31T05:13:45;8.60;94.00
51383;DHT22;37475;43.358;1.248;2023-10-31T05:16:11;8.60;94.00
51383;DHT22;37475;43.358;1.248;2023-10-31T05:18:38;8.60;93.90
51383;DHT22;37475;43.358;1.248;2023-10-31T05:21:04;8.60;94.00
51383;DHT22;37475;43.358;1.248;2023-10-31T05:23:31;8.60;94.00
51383;DHT22;37475;43.358;1.248;2023-10-31T05:25:57;8.60;94.00
51383;DHT22;37475;43.358;1.248;2023-10-31T05:28:23;8.60;93.90
51383;DHT22;37475;43.358;1.248;2023-10-31T05:30:49;8.60;93.90
51383;DHT22;37475;43.358;1.248;2023-10-31T05:33:15;8.60;93.90
51383;DHT22;37475;43.358;1.248;2023-10-31T05:35:42;8.60;93.90
51383;DHT22;37475;43.358;1.248;2023-10-31T05:38:08;8.60;93.90
51383;DHT22;37475;43.358;1.248;2023-10-31T05:40:34;8.50;93.90
51383;DHT22;37475;43.358;1.248;2023-10-31T05:43:03;8.60;94.00
51383;DHT22;37475;43.358;1.248;2023-10-31T05:45:29;8.50;94.00
51383;DHT22;37475;43.358;1.248;2023-10-31T05:47:55;8.60;93.90
51383;DHT22;37475;43.358;1.248;2023-10-31T05:50:21;8.60;93.90
51383;DHT22;37475;43.358;1.248;2023-10-31T05:52:47;8.50;93.80
51383;DHT22;37475;43.358;1.248;2023-10-31T05:55:13;8.40;93.80
51383;DHT22;37475;43.358;1.248;2023-10-31T05:57:39;8.50;93.80
51383;DHT22;37475;43.358;1.248;2023-10-31T06:00:06;8.50;93.70
51383;DHT22;37475;43.358;1.248;2023-10-31T06:02:32;8.60;93.70
51383;DHT22;37475;43.358;1.248;2023-10-31T06:04:58;8.60;93.60
51383;DHT22;37475;43.358;1.248;2023-10-31T06:07:24;8.60;93.50
51383;DHT22;37475;43.358;1.248;2023-10-31T06:09:50;8.60;93.50
51383;DHT22;37475;43.358;1.248;2023-10-31T06:12:16;8.60;93.60
51383;DHT22;37475;43.358;1.248;2023-10-31T06:14:42;8.60;93.40
51383;DHT22;37475;43.358;1.248;2023-10-31T06:17:08;8.60;93.40
51383;DHT22;37475;43.358;1.248;2023-10-31T06:19:37;8.70;93.30
51383;DHT22;37475;43.358;1.248;2023-10-31T06:22:03;8.70;93.30
51383;DHT22;37475;43.358;1.248;2023-10-31T06:24:29;8.70;93.20
51383;DHT22;37475;43.358;1.248;2023-10-31T06:26:55;8.80;93.10
51383;DHT22;37475;43.358;1.248;2023-10-31T06:29:21;8.80;92.90
51383;DHT22;37475;43.358;1.248;2023-10-31T06:31:46;8.80;92.80
51383;DHT22;37475;43.358;1.248;2023-10-31T06:34:13;8.80;92.90
51383;DHT22;37475;43.358;1.248;2023-10-31T06:36:38;8.80;92.70
51383;DHT22;37475;43.358;1.248;2023-10-31T06:39:04;8.80;92.70
51383;DHT22;37475;43.358;1.248;2023-10-31T06:41:30;8.80;92.60
51383;DHT22;37475;43.358;1.248;2023-10-31T06:43:56;8.80;92.40
51383;DHT22;37475;43.358;1.248;2023-10-31T06:46:21;8.90;92.30
51383;DHT22;37475;43.358;1.248;2023-10-31T06:48:47;8.90;92.20
51383;DHT22;37475;43.358;1.248;2023-10-31T06:51:13;9.00;92.20
51383;DHT22;37475;43.358;1.248;2023-10-31T06:53:38;9.00;92.20
51383;DHT22;37475;43.358;1.248;2023-10-31T06:56:04;9.10;92.30
51383;DHT22;37475;43.358;1.248;2023-10-31T06:58:30;9.10;92.20
51383;DHT22;37475;43.358;1.248;2023-10-31T07:00:56;9.20;92.10
51383;DHT22;37475;43.358;1.248;2023-10-31T07:03:23;9.30;91.90
51383;DHT22;37475;43.358;1.248;2023-10-31T07:05:49;9.40;91.70
51383;DHT22;37475;43.358;1.248;2023-10-31T07:08:15;9.40;91.70
51383;DHT22;37475;43.358;1.248;2023-10-31T07:10:41;9.50;91.60
51383;DHT22;37475;43.358;1.248;2023-10-31T07:13:06;9.60;91.60
51383;DHT22;37475;43.358;1.248;2023-10-31T07:15:32;9.60;91.50
51383;DHT22;37475;43.358;1.248;2023-10-31T07:17:58;9.60;91.30
51383;DHT22;37475;43.358;1.248;2023-10-31T07:20:24;9.70;91.30
51383;DHT22;37475;43.358;1.248;2023-10-31T07:22:49;9.70;91.30
51383;DHT22;37475;43.358;1.248;2023-10-31T07:25:15;9.80;91.20
51383;DHT22;37475;43.358;1.248;2023-10-31T07:27:41;9.80;91.00
51383;DHT22;37475;43.358;1.248;2023-10-31T07:30:07;9.90;91.10
51383;DHT22;37475;43.358;1.248;2023-10-31T07:32:33;10.00;91.10
51383;DHT22;37475;43.358;1.248;2023-10-31T07:34:59;10.00;91.10
51383;DHT22;37475;43.358;1.248;2023-10-31T07:37:25;10.10;91.00
51383;DHT22;37475;43.358;1.248;2023-10-31T07:39:50;10.00;90.70
51383;DHT22;37475;43.358;1.248;2023-10-31T07:42:16;10.10;90.70
51383;DHT22;37475;43.358;1.248;2023-10-31T07:44:42;10.10;90.70
51383;DHT22;37475;43.358;1.248;2023-10-31T07:47:08;10.10;90.40
51383;DHT22;37475;43.358;1.248;2023-10-31T07:49:34;10.10;90.40
51383;DHT22;37475;43.358;1.248;2023-10-31T07:51:59;10.10;90.20
51383;DHT22;37475;43.358;1.248;2023-10-31T07:54:25;10.10;90.10
51383;DHT22;37475;43.358;1.248;2023-10-31T07:56:52;10.10;90.10
51383;DHT22;37475;43.358;1.248;2023-10-31T07:59:18;10.20;89.90
51383;DHT22;37475;43.358;1.248;2023-10-31T08:01:43;10.30;89.60
51383;DHT22;37475;43.358;1.248;2023-10-31T08:04:09;10.40;88.90
51383;DHT22;37475;43.358;1.248;2023-10-31T08:06:35;10.60;88.30
51383;DHT22;37475;43.358;1.248;2023-10-31T08:09:01;10.80;88.50
51383;DHT22;37475;43.358;1.248;2023-10-31T08:11:27;10.90;88.80
51383;DHT22;37475;43.358;1.248;2023-10-31T08:13:53;11.00;88.20
51383;DHT22;37475;43.358;1.248;2023-10-31T08:16:19;11.10;88.00
51383;DHT22;37475;43.358;1.248;2023-10-31T08:18:46;11.30;87.30
51383;DHT22;37475;43.358;1.248;2023-10-31T08:21:12;11.60;87.20
51383;DHT22;37475;43.358;1.248;2023-10-31T08:23:38;11.90;86.50
51383;DHT22;37475;43.358;1.248;2023-10-31T08:26:04;12.10;84.80
51383;DHT22;37475;43.358;1.248;2023-10-31T08:28:30;12.40;83.70
51383;DHT22;37475;43.358;1.248;2023-10-31T08:30:57;12.50;84.10
51383;DHT22;37475;43.358;1.248;2023-10-31T08:33:23;12.60;84.20
51383;DHT22;37475;43.358;1.248;2023-10-31T08:35:49;12.60;83.40
51383;DHT22;37475;43.358;1.248;2023-10-31T08:38:16;12.80;83.10
51383;DHT22;37475;43.358;1.248;2023-10-31T08:40:42;12.80;83.10
51383;DHT22;37475;43.358;1.248;2023-10-31T08:43:07;12.90;83.60
51383;DHT22;37475;43.358;1.248;2023-10-31T08:45:33;12.90;82.50
51383;DHT22;37475;43.358;1.248;2023-10-31T08:48:00;13.10;81.70
51383;DHT22;37475;43.358;1.248;2023-10-31T08:50:26;13.30;81.70
51383;DHT22;37475;43.358;1.248;2023-10-31T08:52:52;13.60;82.70
51383;DHT22;37475;43.358;1.248;2023-10-31T08:55:18;13.60;81.00
51383;DHT22;37475;43.358;1.248;2023-10-31T08:57:44;13.90;80.20
51383;DHT22;37475;43.358;1.248;2023-10-31T09:00:10;14.30;80.60
51383;DHT22;37475;43.358;1.248;2023-10-31T09:02:36;14.60;77.60
51383;DHT22;37475;43.358;1.248;2023-10-31T09:05:02;14.80;75.00
51383;DHT22;37475;43.358;1.248;2023-10-31T09:07:28;14.80;75.90
51383;DHT22;37475;43.358;1.248;2023-10-31T09:09:53;14.80;76.30
51383;DHT22;37475;43.358;1.248;2023-10-31T09:12:21;14.80;76.10
51383;DHT22;37475;43.358;1.248;2023-10-31T09:14:46;14.70;73.80
51383;DHT22;37475;43.358;1.248;2023-10-31T09:17:12;14.70;73.80
51383;DHT22;37475;43.358;1.248;2023-10-31T09:19:38;14.80;73.70
51383;DHT22;37475;43.358;1.248;2023-10-31T09:22:04;14.70;72.90
51383;DHT22;37475;43.358;1.248;2023-10-31T09:24:29;14.70;73.60
51383;DHT22;37475;43.358;1.248;2023-10-31T09:26:55;14.80;72.80
51383;DHT22;37475;43.358;1.248;2023-10-31T09:29:21;15.00;72.50
51383;DHT22;37475;43.358;1.248;2023-10-31T09:31:47;15.10;72.10
51383;DHT22;37475;43.358;1.248;2023-10-31T09:34:13;15.20;72.70
51383;DHT22;37475;43.358;1.248;2023-10-31T09:36:40;15.40;73.50
51383;DHT22;37475;43.358;1.248;2023-10-31T09:39:05;15.40;70.60
51383;DHT22;37475;43.358;1.248;2023-10-31T09:41:31;15.60;71.00
51383;DHT22;37475;43.358;1.248;2023-10-31T09:44:00;15.70;72.30
51383;DHT22;37475;43.358;1.248;2023-10-31T09:46:28;15.70;68.90
51383;DHT22;37475;43.358;1.248;2023-10-31T09:48:55;15.90;69.80
51383;DHT22;37475;43.358;1.248;2023-10-31T09:51:21;15.80;68.30
51383;DHT22;37475;43.358;1.248;2023-10-31T09:53:47;16.00;71.10
51383;DHT22;37475;43.358;1.248;2023-10-31T09:56:14;16.10;67.40
51383;DHT22;37475;43.358;1.248;2023-10-31T09:58:40;16.10;68.70
51383;DHT22;37475;43.358;1.248;2023-10-31T10:01:07;16.30;68.40
51383;DHT22;37475;43.358;1.248;2023-10-31T10:03:33;16.50;68.60
51383;DHT22;37475;43.358;1.248;2023-10-31T10:05:59;16.60;67.20
51383;DHT22;37475;43.358;1.248;2023-10-31T10:08:25;16.70;64.90
51383;DHT22;37475;43.358;1.248;2023-10-31T10:10:51;16.80;64.40
51383;DHT22;37475;43.358;1.248;2023-10-31T10:13:18;17.00;63.20
51383;DHT22;37475;43.358;1.248;2023-10-31T10:15:47;17.20;63.20
51383;DHT22;37475;43.358;1.248;2023-10-31T10:18:31;17.40;63.50
51383;DHT22;37475;43.358;1.248;2023-10-31T10:20:59;17.60;62.70
51383;DHT22;37475;43.358;1.248;2023-10-31T10:23:26;17.60;62.70
51383;DHT22;37475;43.358;1.248;2023-10-31T10:25:54;17.70;63.00
51383;DHT22;37475;43.358;1.248;2023-10-31T10:28:20;17.90;60.80
51383;DHT22;37475;43.358;1.248;2023-10-31T10:30:47;18.00;60.20
51383;DHT22;37475;43.358;1.248;2023-10-31T10:33:14;17.70;58.50
51383;DHT22;37475;43.358;1.248;2023-10-31T10:35:40;17.80;60.80
51383;DHT22;37475;43.358;1.248;2023-10-31T10:38:13;17.90;59.80
51383;DHT22;37475;43.358;1.248;2023-10-31T10:40:41;17.80;61.20
51383;DHT22;37475;43.358;1.248;2023-10-31T10:43:23;18.00;58.50
51383;DHT22;37475;43.358;1.248;2023-10-31T10:45:57;18.10;61.40
51383;DHT22;37475;43.358;1.248;2023-10-31T10:48:26;18.30;60.90
51383;DHT22;37475;43.358;1.248;2023-10-31T10:51:13;18.70;61.20
51383;DHT22;37475;43.358;1.248;2023-10-31T10:53:50;18.20;58.90
51383;DHT22;37475;43.358;1.248;2023-10-31T10:56:38;18.00;59.60
51383;DHT22;37475;43.358;1.248;2023-10-31T10:59:14;17.70;60.90
51383;DHT22;37475;43.358;1.248;2023-10-31T11:01:41;17.90;60.40
51383;DHT22;37475;43.358;1.248;2023-10-31T11:04:08;17.60;63.10
51383;DHT22;37475;43.358;1.248;2023-10-31T11:06:37;18.30;60.90
51383;DHT22;37475;43.358;1.248;2023-10-31T11:09:05;18.30;57.50
51383;DHT22;37475;43.358;1.248;2023-10-31T11:11:32;18.60;57.50
51383;DHT22;37475;43.358;1.248;2023-10-31T11:13:58;18.70;58.50
51383;DHT22;37475;43.358;1.248;2023-10-31T11:16:34;18.70;55.60
51383;DHT22;37475;43.358;1.248;2023-10-31T11:19:04;18.70;57.40
51383;DHT22;37475;43.358;1.248;2023-10-31T11:21:31;19.10;57.60
51383;DHT22;37475;43.358;1.248;2023-10-31T11:24:01;19.00;55.90
51383;DHT22;37475;43.358;1.248;2023-10-31T11:26:30;19.10;55.80
51383;DHT22;37475;43.358;1.248;2023-10-31T11:29:06;18.90;56.60
51383;DHT22;37475;43.358;1.248;2023-10-31T11:31:34;19.30;56.70
51383;DHT22;37475;43.358;1.248;2023-10-31T11:34:02;19.30;55.70
51383;DHT22;37475;43.358;1.248;2023-10-31T11:36:32;19.40;54.80
51383;DHT22;37475;43.358;1.248;2023-10-31T11:39:15;19.40;54.00
51383;DHT22;37475;43.358;1.248;2023-10-31T11:41:49;19.70;54.90
51383;DHT22;37475;43.358;1.248;2023-10-31T11:44:18;19.70;54.30
51383;DHT22;37475;43.358;1.248;2023-10-31T11:46:47;20.00;53.70
51383;DHT22;37475;43.358;1.248;2023-10-31T11:49:16;20.30;53.70
51383;DHT22;37475;43.358;1.248;2023-10-31T11:51:45;20.00;52.80
51383;DHT22;37475;43.358;1.248;2023-10-31T11:54:16;19.50;53.80
51383;DHT22;37475;43.358;1.248;2023-10-31T11:56:51;19.70;53.70
51383;DHT22;37475;43.358;1.248;2023-10-31T11:59:18;20.30;53.30
51383;DHT22;37475;43.358;1.248;2023-10-31T12:01:47;20.40;52.90
51383;DHT22;37475;43.358;1.248;2023-10-31T12:04:22;20.10;53.00
51383;DHT22;37475;43.358;1.248;2023-10-31T12:06:58;20.10;52.80
51383;DHT22;37475;43.358;1.248;2023-10-31T12:09:24;20.50;52.60
51383;DHT22;37475;43.358;1.248;2023-10-31T12:11:50;20.80;50.60
51383;DHT22;37475;43.358;1.248;2023-10-31T12:14:18;20.80;51.60
51383;DHT22;37475;43.358;1.248;2023-10-31T12:16:46;20.80;51.50
51383;DHT22;37475;43.358;1.248;2023-10-31T12:19:11;20.20;50.80
51383;DHT22;37475;43.358;1.248;2023-10-31T12:24:16;20.40;52.30
51383;DHT22;37475;43.358;1.248;2023-10-31T12:26:43;20.50;50.90
51383;DHT22;37475;43.358;1.248;2023-10-31T12:29:18;20.20;53.10
51383;DHT22;37475;43.358;1.248;2023-10-31T12:31:45;20.30;51.70
51383;DHT22;37475;43.358;1.248;2023-10-31T12:34:16;20.70;51.00
51383;DHT22;37475;43.358;1.248;2023-10-31T12:36:44;20.10;53.90
51383;DHT22;37475;43.358;1.248;2023-10-31T12:39:12;20.90;51.30
51383;DHT22;37475;43.358;1.248;2023-10-31T12:41:40;21.30;50.90
51383;DHT22;37475;43.358;1.248;2023-10-31T12:44:07;20.50;52.70
51383;DHT22;37475;43.358;1.248;2023-10-31T12:46:40;20.60;52.00
51383;DHT22;37475;43.358;1.248;2023-10-31T12:49:19;20.80;51.80
51383;DHT22;37475;43.358;1.248;2023-10-31T12:52:02;21.10;50.50
51383;DHT22;37475;43.358;1.248;2023-10-31T12:54:33;21.40;50.30
51383;DHT22;37475;43.358;1.248;2023-10-31T12:57:02;21.60;49.60
51383;DHT22;37475;43.358;1.248;2023-10-31T12:59:30;21.00;49.90
51383;DHT22;37475;43.358;1.248;2023-10-31T13:01:57;21.10;49.40
51383;DHT22;37475;43.358;1.248;2023-10-31T13:04:31;20.90;50.90
51383;DHT22;37475;43.358;1.248;2023-10-31T13:09:33;21.50;48.90
51383;DHT22;37475;43.358;1.248;2023-10-31T13:12:02;21.30;49.00
51383;DHT22;37475;43.358;1.248;2023-10-31T13:14:29;20.20;52.40
51383;DHT22;37475;43.358;1.248;2023-10-31T13:16:55;21.10;50.50
51383;DHT22;37475;43.358;1.248;2023-10-31T13:19:21;21.10;49.90
51383;DHT22;37475;43.358;1.248;2023-10-31T13:21:47;21.10;49.30
51383;DHT22;37475;43.358;1.248;2023-10-31T13:24:14;21.20;49.50
51383;DHT22;37475;43.358;1.248;2023-10-31T13:26:39;21.60;48.80
51383;DHT22;37475;43.358;1.248;2023-10-31T13:29:05;21.90;47.50
51383;DHT22;37475;43.358;1.248;2023-10-31T13:31:31;22.40;46.40
51383;DHT22;37475;43.358;1.248;2023-10-31T13:33:57;21.80;47.40
51383;DHT22;37475;43.358;1.248;2023-10-31T13:36:23;21.50;48.60
51383;DHT22;37475;43.358;1.248;2023-10-31T13:38:49;22.10;46.60
51383;DHT22;37475;43.358;1.248;2023-10-31T13:41:15;21.30;48.40
51383;DHT22;37475;43.358;1.248;2023-10-31T13:43:41;21.00;48.50
51383;DHT22;37475;43.358;1.248;2023-10-31T13:46:07;20.30;50.90
51383;DHT22;37475;43.358;1.248;2023-10-31T13:48:33;20.80;50.30
51383;DHT22;37475;43.358;1.248;2023-10-31T13:50:58;20.90;50.50
51383;DHT22;37475;43.358;1.248;2023-10-31T13:53:25;21.00;49.40
51383;DHT22;37475;43.358;1.248;2023-10-31T13:55:51;21.60;50.30
51383;DHT22;37475;43.358;1.248;2023-10-31T13:58:17;22.00;47.40
51383;DHT22;37475;43.358;1.248;2023-10-31T14:00:43;22.10;47.70
51383;DHT22;37475;43.358;1.248;2023-10-31T14:03:12;22.10;48.40
51383;DHT22;37475;43.358;1.248;2023-10-31T14:05:38;22.30;45.80
51383;DHT22;37475;43.358;1.248;2023-10-31T14:08:04;21.90;47.30
51383;DHT22;37475;43.358;1.248;2023-10-31T14:10:31;21.50;48.20
51383;DHT22;37475;43.358;1.248;2023-10-31T14:12:57;21.90;47.50
51383;DHT22;37475;43.358;1.248;2023-10-31T14:15:23;21.50;49.30
51383;DHT22;37475;43.358;1.248;2023-10-31T14:17:50;22.10;47.30
51383;DHT22;37475;43.358;1.248;2023-10-31T14:20:17;22.10;46.10
51383;DHT22;37475;43.358;1.248;2023-10-31T14:22:49;22.20;46.90
51383;DHT22;37475;43.358;1.248;2023-10-31T14:25:16;22.50;47.20
51383;DHT22;37475;43.358;1.248;2023-10-31T14:27:43;22.60;45.90
51383;DHT22;37475;43.358;1.248;2023-10-31T14:30:10;22.50;46.70
51383;DHT22;37475;43.358;1.248;2023-10-31T14:32:36;23.40;44.50
51383;DHT22;37475;43.358;1.248;2023-10-31T14:35:03;24.40;41.80
51383;DHT22;37475;43.358;1.248;2023-10-31T14:37:29;24.00;41.50
51383;DHT22;37475;43.358;1.248;2023-10-31T14:39:54;22.30;47.10
51383;DHT22;37475;43.358;1.248;2023-10-31T14:42:20;22.00;46.00
51383;DHT22;37475;43.358;1.248;2023-10-31T14:44:46;21.30;48.60
51383;DHT22;37475;43.358;1.248;2023-10-31T14:47:12;20.90;49.20
51383;DHT22;37475;43.358;1.248;2023-10-31T14:49:38;21.50;47.80
51383;DHT22;37475;43.358;1.248;2023-10-31T14:52:04;21.40;48.30
51383;DHT22;37475;43.358;1.248;2023-10-31T14:54:34;21.10;47.30
51383;DHT22;37475;43.358;1.248;2023-10-31T14:57:03;21.50;47.30
51383;DHT22;37475;43.358;1.248;2023-10-31T14:59:28;21.50;46.90
51383;DHT22;37475;43.358;1.248;2023-10-31T15:01:54;21.60;47.20
51383;DHT22;37475;43.358;1.248;2023-10-31T15:04:20;21.50;47.00
51383;DHT22;37475;43.358;1.248;2023-10-31T15:06:46;22.20;45.20
51383;DHT22;37475;43.358;1.248;2023-10-31T15:09:12;22.80;44.60
51383;DHT22;37475;43.358;1.248;2023-10-31T15:11:38;22.50;45.80
51383;DHT22;37475;43.358;1.248;2023-10-31T15:14:04;22.60;45.00
51383;DHT22;37475;43.358;1.248;2023-10-31T15:16:30;23.40;43.20
51383;DHT22;37475;43.358;1.248;2023-10-31T15:18:57;23.50;43.40
51383;DHT22;37475;43.358;1.248;2023-10-31T15:21:24;23.30;43.80
51383;DHT22;37475;43.358;1.248;2023-10-31T15:23:49;22.90;43.60
51383;DHT22;37475;43.358;1.248;2023-10-31T15:26:15;23.50;43.00
51383;DHT22;37475;43.358;1.248;2023-10-31T15:28:42;23.20;42.60
51383;DHT22;37475;43.358;1.248;2023-10-31T15:31:09;21.70;45.90
51383;DHT22;37475;43.358;1.248;2023-10-31T15:33:35;21.10;47.00
51383;DHT22;37475;43.358;1.248;2023-10-31T15:36:02;21.50;48.30
51383;DHT22;37475;43.358;1.248;2023-10-31T15:38:28;22.10;48.80
51383;DHT22;37475;43.358;1.248;2023-10-31T15:40:54;22.80;48.80